Time;durP1;ratioP1;P1;durP2;ratioP2;P2;SDS_P1;SDS_P2;PMS_P1;PMS_P2;Temp;Humidity;BMP_temperature;BMP_pressure;BME280_temperature;BME280_humidity;BME280_pressure;Samples;Min_cycle;Max_cycle;Signal;HPM_P1;HPM_P2
2022/07/24 00:01:44;;;;;;;6.80;6.50;;;;;;;-143.83;100.00;62900.06;5106435;27;20106;-61
2022/07/24 00:04:10;;;;;;;6.50;6.20;;;;;;;-143.83;100.00;62900.06;5106454;28;20708;-63
2022/07/24 00:06:35;;;;;;;6.70;6.40;;;;;;;-143.83;100.00;62900.06;5111729;27;20034;-63
2022/07/24 00:09:01;;;;;;;6.80;6.50;;;;;;;-143.83;100.00;62900.06;5107286;28;20028;-62
2022/07/24 00:11:26;;;;;;;6.50;6.20;;;;;;;-143.83;100.00;62900.06;5107793;27;20028;-61
2022/07/24 00:13:53;;;;;;;6.50;6.20;;;;;;;-143.83;100.00;62900.06;5102564;28;20433;-62
2022/07/24 00:16:18;;;;;;;6.75;6.45;;;;;;;-143.83;100.00;62900.06;5109565;27;20513;-61
2022/07/24 00:18:44;;;;;;;6.50;6.20;;;;;;;-143.83;100.00;62900.06;5108693;28;20031;-61
2022/07/24 00:21:10;;;;;;;6.78;6.47;;;;;;;-143.83;100.00;62900.06;5107018;27;20026;-63
2022/07/24 00:23:36;;;;;;;6.45;6.15;;;;;;;-143.83;100.00;62900.06;5107389;27;20379;-62
2022/07/24 00:26:02;;;;;;;6.60;6.30;;;;;;;-143.83;100.00;62900.06;5106868;27;20046;-63
2022/07/24 00:28:28;;;;;;;6.80;6.50;;;;;;;-143.83;100.00;62900.06;5106967;27;20030;-62
2022/07/24 00:30:54;;;;;;;6.60;6.30;;;;;;;-143.83;100.00;62900.06;5111626;27;20032;-62
2022/07/24 00:33:19;;;;;;;6.50;6.20;;;;;;;-143.83;100.00;62900.06;5108992;27;20020;-62
2022/07/24 00:35:45;;;;;;;6.55;6.25;;;;;;;-143.83;100.00;62900.06;5110379;27;20037;-62
2022/07/24 00:38:10;;;;;;;6.40;6.10;;;;;;;-143.83;100.00;62900.06;5107854;27;20023;-62
2022/07/24 00:40:36;;;;;;;6.80;6.50;;;;;;;-143.83;100.00;62900.06;5108064;27;20023;-62
2022/07/24 00:43:03;;;;;;;6.70;6.40;;;;;;;-143.83;100.00;62900.06;5101393;28;20376;-61
2022/07/24 00:45:28;;;;;;;6.70;6.40;;;;;;;-143.83;100.00;62900.06;5105629;28;20039;-61
2022/07/24 00:47:55;;;;;;;6.53;6.22;;;;;;;-143.83;100.00;62900.06;5109856;27;20028;-62
2022/07/24 00:50:21;;;;;;;6.90;6.60;;;;;;;-143.83;100.00;62900.06;5107286;28;20019;-62
2022/07/24 00:52:46;;;;;;;6.53;6.22;;;;;;;-143.83;100.00;62900.06;5106664;28;20027;-61
2022/07/24 00:55:12;;;;;;;6.60;6.30;;;;;;;-143.83;100.00;62900.06;5108401;28;20051;-61
2022/07/24 00:57:38;;;;;;;6.97;6.68;;;;;;;-143.83;100.00;62900.06;5107012;28;20024;-62
2022/07/24 01:00:06;;;;;;;6.50;6.20;;;;;;;-143.83;100.00;62900.06;5111231;28;20104;-63
2022/07/24 01:02:32;;;;;;;6.50;6.20;;;;;;;-143.83;100.00;62900.06;5107263;28;20391;-63
2022/07/24 01:04:58;;;;;;;6.60;6.30;;;;;;;-143.83;100.00;62900.06;5112676;27;20514;-62
2022/07/24 01:07:24;;;;;;;6.20;6.00;;;;;;;-143.83;100.00;62900.06;5104180;28;20019;-62
2022/07/24 01:09:51;;;;;;;6.55;6.25;;;;;;;-143.83;100.00;62900.06;5111666;28;20031;-62
2022/07/24 01:12:17;;;;;;;6.60;6.30;;;;;;;-143.83;100.00;62900.06;5104422;28;20028;-63
2022/07/24 01:14:43;;;;;;;6.70;6.40;;;;;;;-143.83;100.00;62900.06;5107025;28;20227;-62
2022/07/24 01:17:10;;;;;;;6.50;6.20;;;;;;;-143.83;100.00;62900.06;5103779;28;20143;-61
2022/07/24 01:19:36;;;;;;;6.70;6.40;;;;;;;-143.83;100.00;62900.06;5108356;28;20023;-63
2022/07/24 01:22:01;;;;;;;6.70;6.40;;;;;;;-143.83;100.00;62900.06;5108220;28;20027;-63
2022/07/24 01:24:27;;;;;;;6.60;6.30;;;;;;;-143.83;100.00;62900.06;5106605;28;20491;-62
2022/07/24 01:26:53;;;;;;;6.25;6.03;;;;;;;-143.83;100.00;62900.06;5108915;28;20035;-62
2022/07/24 01:29:18;;;;;;;6.47;6.18;;;;;;;-143.83;100.00;62900.06;5104907;28;20024;-61
2022/07/24 01:31:44;;;;;;;6.38;6.07;;;;;;;-143.83;100.00;62900.06;5110290;27;20475;-62
2022/07/24 01:34:09;;;;;;;6.47;6.18;;;;;;;-143.83;100.00;62900.06;5109102;28;20123;-61
2022/07/24 01:36:35;;;;;;;7.15;6.85;;;;;;;-143.83;100.00;62900.06;5104877;28;20109;-62
2022/07/24 01:39:01;;;;;;;6.80;6.50;;;;;;;-143.83;100.00;62900.06;5105794;28;20034;-62
2022/07/24 01:41:26;;;;;;;6.50;6.20;;;;;;;-143.83;100.00;62900.06;5111447;27;20054;-62
2022/07/24 01:43:52;;;;;;;6.60;6.30;;;;;;;-143.83;100.00;62900.06;5115488;28;20028;-62
2022/07/24 01:46:17;;;;;;;6.90;6.60;;;;;;;-143.83;100.00;62900.06;5113030;28;21331;-62
2022/07/24 01:48:43;;;;;;;6.80;6.50;;;;;;;-143.83;100.00;62900.06;5112987;28;20032;-62
2022/07/24 01:51:09;;;;;;;6.70;6.40;;;;;;;-143.83;100.00;62900.06;5115353;28;20520;-62
2022/07/24 01:53:36;;;;;;;6.70;6.40;;;;;;;-143.83;100.00;62900.06;5115055;28;20070;-62
2022/07/24 01:56:01;;;;;;;6.50;6.20;;;;;;;-143.83;100.00;62900.06;5115293;28;20019;-62
2022/07/24 01:58:27;;;;;;;6.43;6.13;;;;;;;-143.83;100.00;62900.06;5115634;28;20050;-61
2022/07/24 02:00:53;;;;;;;6.70;6.40;;;;;;;-143.83;100.00;62900.06;5115529;28;20020;-62
2022/07/24 02:03:20;;;;;;;6.40;6.10;;;;;;;-143.83;100.00;62900.06;5112472;28;20035;-62
2022/07/24 02:05:46;;;;;;;6.53;6.22;;;;;;;-143.83;100.00;62900.06;5105274;28;20022;-62
2022/07/24 02:08:12;;;;;;;7.35;7.05;;;;;;;-143.83;100.00;62900.06;5112755;28;20020;-61
2022/07/24 02:10:38;;;;;;;6.65;6.35;;;;;;;-143.83;100.00;62900.06;5105550;27;20031;-62
2022/07/24 02:13:04;;;;;;;6.30;6.05;;;;;;;-143.83;100.00;62900.06;5108192;27;20055;-62
2022/07/24 02:15:29;;;;;;;6.60;6.30;;;;;;;-143.83;100.00;62900.06;5123307;27;20031;-62
2022/07/24 02:17:59;;;;;;;6.72;6.43;;;;;;;-143.83;100.00;62900.06;5105128;27;20055;-62
2022/07/24 02:20:25;;;;;;;6.78;6.47;;;;;;;-143.83;100.00;62900.06;5103299;27;20512;-62
2022/07/24 02:22:51;;;;;;;6.60;6.30;;;;;;;-143.83;100.00;62900.06;5120967;27;20024;-62
2022/07/24 02:25:16;;;;;;;6.40;6.10;;;;;;;-143.83;100.00;62900.06;5114847;28;20077;-62
2022/07/24 02:27:42;;;;;;;6.63;6.32;;;;;;;-143.83;100.00;62900.06;5114067;28;20027;-61
2022/07/24 02:30:12;;;;;;;6.80;6.50;;;;;;;-143.83;100.00;62900.06;5114455;28;20394;-62
2022/07/24 02:32:38;;;;;;;6.50;6.20;;;;;;;-143.83;100.00;62900.06;5114812;28;20038;-62
2022/07/24 02:35:04;;;;;;;6.63;6.32;;;;;;;-143.83;100.00;62900.06;5104992;28;20024;-60
2022/07/24 02:37:31;;;;;;;6.40;6.10;;;;;;;-143.83;100.00;62900.06;5098511;28;20546;-61
2022/07/24 02:39:57;;;;;;;6.50;6.20;;;;;;;-143.83;100.00;62900.06;5113467;27;20035;-62
2022/07/24 02:42:23;;;;;;;6.20;6.00;;;;;;;-143.83;100.00;62900.06;5114462;28;20406;-62
2022/07/24 02:44:48;;;;;;;6.47;6.18;;;;;;;-143.83;100.00;62900.06;5114687;28;20040;-62
2022/07/24 02:47:13;;;;;;;6.70;6.40;;;;;;;-143.83;100.00;62900.06;5100845;28;20103;-61
2022/07/24 02:49:39;;;;;;;6.68;6.38;;;;;;;-143.83;100.00;62900.06;5114268;28;20036;-62
2022/07/24 02:52:05;;;;;;;6.43;6.13;;;;;;;-143.83;100.00;62900.06;5114220;28;20027;-62
2022/07/24 02:54:30;;;;;;;6.40;6.10;;;;;;;-143.83;100.00;62900.06;5113952;28;20490;-61
2022/07/24 02:56:57;;;;;;;6.55;6.25;;;;;;;-143.83;100.00;62900.06;5126384;27;20034;-61
2022/07/24 02:59:23;;;;;;;6.50;6.20;;;;;;;-143.83;100.00;62900.06;5110356;28;20157;-62
2022/07/24 03:01:48;;;;;;;6.60;6.30;;;;;;;-143.83;100.00;62900.06;5105208;28;20059;-62
2022/07/24 03:04:14;;;;;;;6.60;6.30;;;;;;;-143.83;100.00;62900.06;5114193;28;20028;-61
2022/07/24 03:06:40;;;;;;;6.50;6.20;;;;;;;-143.83;100.00;62900.06;5114109;28;20102;-61
2022/07/24 03:09:05;;;;;;;6.40;6.10;;;;;;;-143.83;100.00;62900.06;5113823;27;20023;-62
2022/07/24 03:11:31;;;;;;;6.47;6.18;;;;;;;-143.83;100.00;62900.06;5109432;28;20103;-61
2022/07/24 03:13:57;;;;;;;6.60;6.30;;;;;;;-143.83;100.00;62900.06;5110150;27;20047;-62
2022/07/24 03:16:22;;;;;;;6.60;6.30;;;;;;;-143.83;100.00;62900.06;5113836;28;20383;-62
2022/07/24 03:18:48;;;;;;;6.50;6.20;;;;;;;-143.83;100.00;62900.06;5113769;28;20028;-62
2022/07/24 03:21:14;;;;;;;6.50;6.20;;;;;;;-143.83;100.00;62900.06;5114006;28;20024;-61
2022/07/24 03:23:40;;;;;;;6.20;6.00;;;;;;;-143.83;100.00;62900.06;5113804;28;20051;-61
2022/07/24 03:26:06;;;;;;;6.40;6.10;;;;;;;-143.83;100.00;62900.06;5113916;28;20054;-62
2022/07/24 03:28:31;;;;;;;6.15;5.95;;;;;;;-143.83;100.00;62900.06;5112563;28;20034;-61
2022/07/24 03:30:57;;;;;;;6.80;6.50;;;;;;;-143.83;100.00;62900.06;5102501;27;20071;-62
2022/07/24 03:33:23;;;;;;;6.35;6.05;;;;;;;-143.83;100.00;62900.06;5106862;28;20032;-62
2022/07/24 03:35:48;;;;;;;6.45;6.15;;;;;;;-143.83;100.00;62900.06;5113770;28;20035;-61
2022/07/24 03:38:14;;;;;;;6.00;5.80;;;;;;;-143.83;100.00;62900.06;5112087;28;20444;-61
2022/07/24 03:40:39;;;;;;;6.47;6.18;;;;;;;-143.83;100.00;62900.06;5113225;28;20062;-62
2022/07/24 03:43:05;;;;;;;6.32;6.05;;;;;;;-143.83;100.00;62900.06;5099541;27;20032;-62
2022/07/24 03:45:31;;;;;;;6.32;6.03;;;;;;;-143.83;100.00;62900.06;5112524;28;20027;-63
2022/07/24 03:47:56;;;;;;;6.38;6.10;;;;;;;-143.83;100.00;62900.06;5108039;28;20070;-61
2022/07/24 03:50:22;;;;;;;6.50;6.20;;;;;;;-143.83;100.00;62900.06;5105127;28;20031;-62
2022/07/24 03:52:47;;;;;;;6.40;6.10;;;;;;;-143.83;100.00;62900.06;5113315;28;20024;-62
2022/07/24 03:55:13;;;;;;;6.40;6.10;;;;;;;-143.83;100.00;62900.06;5106857;28;20020;-62
2022/07/24 03:57:38;;;;;;;6.60;6.30;;;;;;;-143.83;100.00;62900.06;5110964;28;20067;-61
2022/07/24 04:00:05;;;;;;;6.50;6.20;;;;;;;-143.83;100.00;62900.06;5113347;28;20055;-62
2022/07/24 04:02:31;;;;;;;6.40;6.10;;;;;;;-143.83;100.00;62900.06;5110913;27;20388;-62
2022/07/24 04:04:56;;;;;;;6.40;6.10;;;;;;;-143.83;100.00;62900.06;5108918;27;20028;-62
2022/07/24 04:07:22;;;;;;;6.22;6.03;;;;;;;-143.83;100.00;62900.06;5104927;28;20046;-62
2022/07/24 04:09:47;;;;;;;6.32;6.03;;;;;;;-143.83;100.00;62900.06;5112780;28;20047;-61
2022/07/24 04:12:13;;;;;;;6.50;6.20;;;;;;;-143.83;100.00;62900.06;5110894;28;20085;-62
2022/07/24 04:14:38;;;;;;;6.60;6.30;;;;;;;-143.83;100.00;62900.06;5124548;27;20042;-62
2022/07/24 04:17:04;;;;;;;6.40;6.10;;;;;;;-143.83;100.00;62900.06;5113877;27;20489;-62
2022/07/24 04:19:29;;;;;;;6.70;6.40;;;;;;;-143.83;100.00;62900.06;5109128;28;20024;-62
2022/07/24 04:21:55;;;;;;;6.30;6.00;;;;;;;-143.83;100.00;62900.06;5107961;28;20491;-61
2022/07/24 04:24:21;;;;;;;6.50;6.20;;;;;;;-143.83;100.00;62900.06;5112533;28;20032;-62
2022/07/24 04:26:46;;;;;;;6.78;6.47;;;;;;;-143.83;100.00;62900.06;5112698;28;20015;-61
2022/07/24 04:29:12;;;;;;;6.70;6.40;;;;;;;-143.83;100.00;62900.06;5110424;28;20528;-61
2022/07/24 04:31:37;;;;;;;6.70;6.40;;;;;;;-143.83;100.00;62900.06;5112763;28;20102;-62
2022/07/24 04:34:03;;;;;;;7.00;6.70;;;;;;;-143.83;100.00;62900.06;5111124;28;20031;-61
2022/07/24 04:36:29;;;;;;;6.85;6.55;;;;;;;-143.83;100.00;62900.06;5097654;28;20158;-62
2022/07/24 04:38:54;;;;;;;6.90;6.60;;;;;;;-143.83;100.00;62900.06;5108460;28;20024;-62
2022/07/24 04:41:20;;;;;;;6.90;6.60;;;;;;;-143.83;100.00;62900.06;5110686;28;20063;-62
2022/07/24 04:43:45;;;;;;;6.90;6.60;;;;;;;-143.83;100.00;62900.06;5105192;28;20035;-62
2022/07/24 04:46:11;;;;;;;7.15;6.85;;;;;;;-143.83;100.00;62900.06;5105902;28;20019;-61
2022/07/24 04:48:36;;;;;;;6.88;6.57;;;;;;;-143.83;100.00;62900.06;5112267;28;20115;-63
2022/07/24 04:51:02;;;;;;;7.00;6.70;;;;;;;-143.83;100.00;62900.06;5111576;28;20122;-61
2022/07/24 04:53:30;;;;;;;7.00;6.70;;;;;;;-143.83;100.00;62900.06;5109393;28;20039;-62
2022/07/24 04:55:56;;;;;;;7.00;6.70;;;;;;;-143.83;100.00;62900.06;5108211;28;20046;-62
2022/07/24 04:58:22;;;;;;;6.90;6.60;;;;;;;-143.83;100.00;62900.06;5112324;28;20016;-62
2022/07/24 05:00:47;;;;;;;6.80;6.50;;;;;;;-143.83;100.00;62900.06;5111998;28;20486;-61
2022/07/24 05:03:13;;;;;;;7.00;6.70;;;;;;;-143.83;100.00;62900.06;5108242;28;20019;-62
2022/07/24 05:05:38;;;;;;;6.75;6.45;;;;;;;-143.83;100.00;62900.06;5112537;28;20035;-62
2022/07/24 05:08:04;;;;;;;7.03;6.72;;;;;;;-143.83;100.00;62900.06;5112002;28;20020;-62
2022/07/24 05:10:29;;;;;;;6.85;6.55;;;;;;;-143.83;100.00;62900.06;5114857;28;20508;-62
2022/07/24 05:12:55;;;;;;;7.10;6.80;;;;;;;-143.83;100.00;62900.06;5112483;28;20043;-63
2022/07/24 05:15:21;;;;;;;6.93;6.63;;;;;;;-143.83;100.00;62900.06;5098240;28;20047;-62
2022/07/24 05:17:47;;;;;;;7.00;6.70;;;;;;;-143.83;100.00;62900.06;5111696;28;20056;-61
2022/07/24 05:20:13;;;;;;;6.97;6.68;;;;;;;-143.83;100.00;62900.06;5110263;28;20475;-62
2022/07/24 05:22:38;;;;;;;7.20;6.90;;;;;;;-143.83;100.00;62900.06;5092234;28;20038;-62
2022/07/24 05:25:05;;;;;;;6.90;6.60;;;;;;;-143.83;100.00;62900.06;5105077;28;20020;-61
2022/07/24 05:27:30;;;;;;;7.18;6.88;;;;;;;-143.83;100.00;62900.06;5111206;28;20027;-61
2022/07/24 05:29:55;;;;;;;7.20;6.90;;;;;;;-143.83;100.00;62900.06;5115192;28;20046;-61
2022/07/24 05:32:21;;;;;;;7.28;6.97;;;;;;;-143.83;100.00;62900.06;5111313;28;20038;-62
2022/07/24 05:34:46;;;;;;;6.95;6.65;;;;;;;-143.83;100.00;62900.06;5101215;28;20058;-62
2022/07/24 05:37:12;;;;;;;7.18;6.88;;;;;;;-143.83;100.00;62900.06;5106911;28;20027;-62
2022/07/24 05:39:37;;;;;;;7.10;6.80;;;;;;;-143.83;100.00;62900.06;5111374;28;20027;-62
2022/07/24 05:42:04;;;;;;;7.18;6.88;;;;;;;-143.83;100.00;62900.06;5110728;28;20044;-61
2022/07/24 05:44:30;;;;;;;7.07;6.78;;;;;;;-143.83;100.00;62900.06;5097094;28;20483;-61
2022/07/24 05:46:55;;;;;;;7.00;6.70;;;;;;;-143.83;100.00;62900.06;5112322;28;20074;-63
2022/07/24 05:49:21;;;;;;;6.93;6.63;;;;;;;-143.83;100.00;62900.06;5110231;28;20073;-61
2022/07/24 05:51:46;;;;;;;7.05;6.75;;;;;;;-143.83;100.00;62900.06;5104768;28;20111;-62
2022/07/24 05:54:12;;;;;;;7.00;6.70;;;;;;;-143.83;100.00;62900.06;5106800;28;20029;-62
2022/07/24 05:56:37;;;;;;;6.93;6.63;;;;;;;-143.83;100.00;62900.06;5113995;27;20376;-62
2022/07/24 05:59:03;;;;;;;7.25;6.95;;;;;;;-143.83;100.00;62900.06;5111495;28;20036;-62
2022/07/24 06:01:28;;;;;;;7.03;6.72;;;;;;;-143.83;100.00;62900.06;5111468;28;20027;-62
2022/07/24 06:03:54;;;;;;;6.80;6.50;;;;;;;-143.83;100.00;62900.06;5115507;27;20030;-61
2022/07/24 06:06:20;;;;;;;6.78;6.47;;;;;;;-143.83;100.00;62900.06;5116148;27;20077;-62
2022/07/24 06:08:45;;;;;;;6.57;6.28;;;;;;;-143.83;100.00;62900.06;5113842;28;20031;-62
2022/07/24 06:11:11;;;;;;;6.57;6.28;;;;;;;-143.83;100.00;62900.06;5114850;28;20101;-62
2022/07/24 06:13:37;;;;;;;6.57;6.28;;;;;;;-143.83;100.00;62900.06;5115206;28;20034;-62
2022/07/24 06:16:03;;;;;;;6.63;6.32;;;;;;;-143.83;100.00;62900.06;5115092;28;20568;-62
2022/07/24 06:18:29;;;;;;;6.47;6.18;;;;;;;-143.83;100.00;62900.06;5113981;28;20050;-63
2022/07/24 06:20:54;;;;;;;6.50;6.20;;;;;;;-143.83;100.00;62900.06;5115118;27;20471;-62
2022/07/24 06:23:20;;;;;;;6.20;6.00;;;;;;;-143.83;100.00;62900.06;5104539;28;20023;-62
2022/07/24 06:25:45;;;;;;;6.50;6.20;;;;;;;-143.83;100.00;62900.06;5114499;28;20027;-62
2022/07/24 06:28:11;;;;;;;6.20;6.00;;;;;;;-143.83;100.00;62900.06;5111144;28;20033;-62
2022/07/24 06:30:36;;;;;;;6.40;6.10;;;;;;;-143.83;100.00;62900.06;5114618;28;20368;-62
2022/07/24 06:33:02;;;;;;;6.68;6.38;;;;;;;-143.83;100.00;62900.06;5100745;28;20106;-63
2022/07/24 06:35:28;;;;;;;7.00;6.70;;;;;;;-143.83;100.00;62900.06;5102765;28;20031;-62
2022/07/24 06:37:55;;;;;;;7.00;6.70;;;;;;;-143.83;100.00;62900.06;5110302;27;20020;-62
2022/07/24 06:40:21;;;;;;;7.00;6.70;;;;;;;-143.83;100.00;62900.06;5114471;28;20035;-60
2022/07/24 06:42:47;;;;;;;7.10;6.80;;;;;;;-143.83;100.00;62900.06;5114128;28;20110;-62
2022/07/24 06:45:14;;;;;;;6.85;6.55;;;;;;;-143.83;100.00;62900.06;5114463;28;20016;-62
2022/07/24 06:47:40;;;;;;;7.10;6.80;;;;;;;-143.83;100.00;62900.06;5114432;28;20024;-62
2022/07/24 06:50:06;;;;;;;7.07;6.78;;;;;;;-143.83;100.00;62900.06;5098616;28;20020;-63
2022/07/24 06:52:32;;;;;;;7.10;6.80;;;;;;;-143.83;100.00;62900.06;5122161;27;20016;-62
2022/07/24 06:54:57;;;;;;;6.78;6.47;;;;;;;-143.83;100.00;62900.06;5110300;27;20027;-62
2022/07/24 06:57:25;;;;;;;7.15;6.85;;;;;;;-143.83;100.00;62900.06;5114074;28;20660;-63
2022/07/24 06:59:54;;;;;;;7.00;6.70;;;;;;;-143.83;100.00;62900.06;5111829;28;20161;-62
2022/07/24 07:02:20;;;;;;;7.00;6.70;;;;;;;-143.83;100.00;62900.06;5103721;27;20118;-63
2022/07/24 07:04:48;;;;;;;6.80;6.50;;;;;;;-143.83;100.00;62900.06;5118530;27;20085;-63
2022/07/24 07:07:15;;;;;;;6.60;6.30;;;;;;;-143.83;100.00;62900.06;5113847;28;20027;-61
2022/07/24 07:09:41;;;;;;;6.60;6.30;;;;;;;-143.83;100.00;62900.06;5108091;28;20106;-63
2022/07/24 07:12:07;;;;;;;6.63;6.32;;;;;;;-143.83;100.00;62900.06;5098226;27;20045;-62
2022/07/24 07:14:33;;;;;;;6.60;6.30;;;;;;;-143.83;100.00;62900.06;5113153;28;20024;-62
2022/07/24 07:16:58;;;;;;;6.70;6.40;;;;;;;-143.83;100.00;62900.06;5113220;28;20039;-62
2022/07/24 07:19:24;;;;;;;6.60;6.30;;;;;;;-143.83;100.00;62900.06;5098794;28;20035;-62
2022/07/24 07:21:49;;;;;;;6.57;6.28;;;;;;;-143.83;100.00;62900.06;5113759;28;20020;-64
2022/07/24 07:24:15;;;;;;;6.57;6.28;;;;;;;-143.83;100.00;62900.06;5113448;28;20019;-62
2022/07/24 07:26:41;;;;;;;6.40;6.10;;;;;;;-143.83;100.00;62900.06;5106386;28;20371;-62
2022/07/24 07:29:06;;;;;;;6.50;6.20;;;;;;;-143.83;100.00;62900.06;5110270;27;20044;-62
2022/07/24 07:31:31;;;;;;;6.40;6.10;;;;;;;-143.83;100.00;62900.06;5115281;27;20027;-63
2022/07/24 07:33:57;;;;;;;6.30;6.05;;;;;;;-143.83;100.00;62900.06;5113206;28;20388;-63
2022/07/24 07:36:24;;;;;;;6.40;6.10;;;;;;;-143.83;100.00;62900.06;5113246;28;20084;-62
2022/07/24 07:38:49;;;;;;;6.38;6.10;;;;;;;-143.83;100.00;62900.06;5113297;28;20471;-62
2022/07/24 07:41:15;;;;;;;6.50;6.20;;;;;;;-143.83;100.00;62900.06;5112036;28;20114;-63
2022/07/24 07:43:41;;;;;;;6.40;6.10;;;;;;;-143.83;100.00;62900.06;5111756;28;20482;-63
2022/07/24 07:46:07;;;;;;;6.40;6.10;;;;;;;-143.83;100.00;62900.06;5109411;27;20028;-62
2022/07/24 07:48:32;;;;;;;6.47;6.18;;;;;;;-143.83;100.00;62900.06;5095891;28;20062;-63
2022/07/24 07:50:59;;;;;;;6.40;6.10;;;;;;;-143.83;100.00;62900.06;5113088;28;20753;-62
2022/07/24 07:53:24;;;;;;;6.22;6.00;;;;;;;-143.83;100.00;62900.06;5103743;28;20035;-63
2022/07/24 07:55:51;;;;;;;6.50;6.20;;;;;;;-143.83;100.00;62900.06;5113023;28;20015;-62
2022/07/24 07:58:20;;;;;;;6.53;6.22;;;;;;;-143.83;100.00;62900.06;5112706;27;20051;-63
2022/07/24 08:00:45;;;;;;;6.60;6.30;;;;;;;-143.83;100.00;62900.06;5122930;27;20019;-62
2022/07/24 08:03:11;;;;;;;6.80;6.50;;;;;;;-143.83;100.00;62900.06;5113134;27;20026;-62
2022/07/24 08:05:36;;;;;;;6.53;6.22;;;;;;;-143.83;100.00;62900.06;5113124;28;20058;-62
2022/07/24 08:08:02;;;;;;;6.60;6.30;;;;;;;-143.83;100.00;62900.06;5110418;28;20424;-62
2022/07/24 08:10:28;;;;;;;6.50;6.20;;;;;;;-143.83;100.00;62900.06;5112868;28;20031;-62
2022/07/24 08:12:54;;;;;;;6.45;6.15;;;;;;;-143.83;100.00;62900.06;5107397;28;20118;-62
2022/07/24 08:15:19;;;;;;;6.50;6.20;;;;;;;-143.83;100.00;62900.06;5098726;28;20028;-62
2022/07/24 08:17:45;;;;;;;6.47;6.18;;;;;;;-143.83;100.00;62900.06;5110616;28;20165;-62
2022/07/24 08:20:11;;;;;;;6.28;6.03;;;;;;;-143.83;100.00;62900.06;5113224;27;20023;-63
2022/07/24 08:22:36;;;;;;;6.50;6.20;;;;;;;-143.83;100.00;62900.06;5112411;28;20078;-63
2022/07/24 08:25:02;;;;;;;6.50;6.20;;;;;;;-143.83;100.00;62900.06;5111587;28;20038;-63
2022/07/24 08:27:28;;;;;;;6.50;6.20;;;;;;;-143.83;100.00;62900.06;5112576;28;20513;-63
2022/07/24 08:29:54;;;;;;;6.70;6.40;;;;;;;-143.83;100.00;62900.06;5101796;27;20035;-63
2022/07/24 08:32:20;;;;;;;6.32;6.05;;;;;;;-143.83;100.00;62900.06;5103355;27;20024;-63
2022/07/24 08:34:46;;;;;;;6.40;6.10;;;;;;;-143.83;100.00;62900.06;5103133;28;20031;-63
2022/07/24 08:37:11;;;;;;;6.60;6.30;;;;;;;-143.83;100.00;62900.06;5117248;27;20387;-63
2022/07/24 08:39:37;;;;;;;6.45;6.15;;;;;;;-143.83;100.00;62900.06;5100135;28;20046;-63
2022/07/24 08:42:02;;;;;;;6.55;6.25;;;;;;;-143.83;100.00;62900.06;5108974;28;20042;-63
2022/07/24 08:44:28;;;;;;;6.40;6.10;;;;;;;-143.83;100.00;62900.06;5111056;28;20016;-63
2022/07/24 08:46:56;;;;;;;6.40;6.10;;;;;;;-143.83;100.00;62900.06;5111069;28;20035;-64
2022/07/24 08:49:26;;;;;;;6.57;6.28;;;;;;;-143.83;100.00;62900.06;5104101;28;20024;-63
2022/07/24 08:51:52;;;;;;;6.60;6.30;;;;;;;-143.83;100.00;62900.06;5107176;28;20031;-63
2022/07/24 08:54:18;;;;;;;6.85;6.55;;;;;;;-143.83;100.00;62900.06;5109653;28;20061;-63
2022/07/24 08:56:43;;;;;;;6.70;6.40;;;;;;;-143.83;100.00;62900.06;5111118;27;20035;-62
2022/07/24 08:59:19;;;;;;;6.50;6.20;;;;;;;-143.83;100.00;62900.06;5107795;28;20394;-63
2022/07/24 09:01:47;;;;;;;6.70;6.40;;;;;;;-143.83;100.00;62900.06;5097933;28;20027;-62
2022/07/24 09:04:49;;;;;;;6.90;6.60;;;;;;;-143.83;100.00;62900.06;5116723;28;20028;-63
2022/07/24 09:07:23;;;;;;;6.50;6.20;;;;;;;-143.83;100.00;62900.06;5023825;28;20024;-63
2022/07/24 09:10:13;;;;;;;6.65;6.35;;;;;;;-143.83;100.00;62900.06;5090631;28;20044;-63
2022/07/24 09:12:42;;;;;;;6.70;6.40;;;;;;;-143.83;100.00;62900.06;5101100;28;20649;-63
2022/07/24 09:15:16;;;;;;;6.50;6.20;;;;;;;-143.83;100.00;62900.06;5100361;28;20031;-64
2022/07/24 09:17:53;;;;;;;6.50;6.20;;;;;;;-143.83;100.00;62900.06;5107302;28;20027;-62
2022/07/24 09:20:20;;;;;;;6.70;6.40;;;;;;;-143.83;100.00;62900.06;5102195;28;20035;-63
2022/07/24 09:22:46;;;;;;;6.70;6.40;;;;;;;-143.83;100.00;62900.06;5094804;28;20506;-63
2022/07/24 09:25:17;;;;;;;6.65;6.35;;;;;;;-143.83;100.00;62900.06;5103702;28;20031;-64
2022/07/24 09:27:52;;;;;;;6.80;6.50;;;;;;;-143.83;100.00;62900.06;5111351;28;20027;-64
2022/07/24 09:30:28;;;;;;;6.53;6.22;;;;;;;-143.83;100.00;62900.06;5107247;28;20032;-64
2022/07/24 09:33:02;;;;;;;6.70;6.40;;;;;;;-143.83;100.00;62900.06;5107865;28;20051;-62
2022/07/24 09:35:54;;;;;;;;;;;;;;;-143.83;100.00;62900.06;5104245;28;20050;-63
2022/07/24 09:38:21;;;;;;;6.68;6.38;;;;;;;-143.83;100.00;62900.06;5110795;28;19918;-62
2022/07/24 09:40:50;;;;;;;6.55;6.25;;;;;;;-143.83;100.00;62900.06;5114627;28;20060;-62
2022/07/24 09:43:23;;;;;;;6.70;6.40;;;;;;;-143.83;100.00;62900.06;5109014;27;20031;-63
2022/07/24 09:46:08;;;;;;;6.70;6.40;;;;;;;-143.83;100.00;62900.06;5113899;27;20039;-63
2022/07/24 09:48:40;;;;;;;6.20;6.00;;;;;;;-143.83;100.00;62900.06;5106203;28;20092;-63
2022/07/24 09:51:12;;;;;;;6.70;6.40;;;;;;;-143.83;100.00;62900.06;5110803;27;20038;-63
2022/07/24 09:53:38;;;;;;;6.50;6.20;;;;;;;-143.83;100.00;62900.06;5121197;27;20029;-63
2022/07/24 09:56:07;;;;;;;6.57;6.28;;;;;;;-143.83;100.00;62900.06;5111540;27;20035;-62
2022/07/24 09:58:46;;;;;;;6.50;6.20;;;;;;;-143.83;100.00;62900.06;5121009;27;20051;-63
2022/07/24 10:01:17;;;;;;;6.75;6.45;;;;;;;-143.83;100.00;62900.06;5113139;27;20095;-63
2022/07/24 10:03:46;;;;;;;6.60;6.30;;;;;;;-143.83;100.00;62900.06;5113008;28;20031;-63
2022/07/24 10:06:14;;;;;;;6.53;6.22;;;;;;;-143.83;100.00;62900.06;5112356;28;20027;-63
2022/07/24 10:08:42;;;;;;;6.55;6.25;;;;;;;-143.83;100.00;62900.06;5112623;28;20031;-64
2022/07/24 10:11:09;;;;;;;6.80;6.50;;;;;;;-143.83;100.00;62900.06;5106542;28;20027;-62
2022/07/24 10:13:35;;;;;;;6.47;6.18;;;;;;;-143.83;100.00;62900.06;5114235;28;20055;-63
2022/07/24 10:16:16;;;;;;;6.60;6.30;;;;;;;-143.83;100.00;62900.06;5106961;27;20541;-62
2022/07/24 10:19:00;;;;;;;6.60;6.30;;;;;;;-143.83;100.00;62900.06;5116616;27;20036;-63
2022/07/24 10:21:34;;;;;;;6.70;6.40;;;;;;;-143.83;100.00;62900.06;5121798;27;20027;-63
2022/07/24 10:24:41;;;;;;;6.55;6.25;;;;;;;-143.83;100.00;62900.06;5110321;27;20038;-63
2022/07/24 10:27:21;;;;;;;6.43;6.13;;;;;;;-143.83;100.00;62900.06;5122484;27;20379;-63
2022/07/24 10:29:48;;;;;;;6.80;6.50;;;;;;;-143.83;100.00;62900.06;5112325;27;20019;-63
2022/07/24 10:32:14;;;;;;;6.70;6.40;;;;;;;-143.83;100.00;62900.06;5102666;27;20028;-62
2022/07/24 10:35:00;;;;;;;6.57;6.28;;;;;;;-143.83;100.00;62900.06;5109944;27;20049;-64
2022/07/24 10:37:41;;;;;;;6.38;6.10;;;;;;;-143.83;100.00;62900.06;5105777;27;20495;-62
2022/07/24 10:40:44;;;;;;;6.78;6.47;;;;;;;-143.83;100.00;62900.06;5106155;27;20551;-63
2022/07/24 10:43:14;;;;;;;6.70;6.40;;;;;;;-143.83;100.00;62900.06;5107699;27;20039;-63
2022/07/24 10:46:05;;;;;;;6.55;6.25;;;;;;;-143.83;100.00;62900.06;5117045;27;20035;-63
2022/07/24 10:48:39;;;;;;;6.53;6.22;;;;;;;-143.83;100.00;62900.06;5110689;27;20066;-65
2022/07/24 10:51:08;;;;;;;6.60;6.30;;;;;;;-143.83;100.00;62900.06;5123096;27;20115;-64
2022/07/24 10:53:39;;;;;;;6.57;6.28;;;;;;;-143.83;100.00;62900.06;5120193;27;20222;-63
2022/07/24 10:56:24;;;;;;;6.47;6.18;;;;;;;-143.83;100.00;62900.06;5119953;27;20031;-63
2022/07/24 10:59:01;;;;;;;6.40;6.10;;;;;;;-143.83;100.00;62900.06;5119388;27;20486;-63
2022/07/24 11:01:51;;;;;;;6.70;6.40;;;;;;;-143.83;100.00;62900.06;5113484;27;20027;-63
2022/07/24 11:04:22;;;;;;;6.50;6.20;;;;;;;-143.83;100.00;62900.06;5118373;27;20031;-62
2022/07/24 11:06:50;;;;;;;6.47;6.18;;;;;;;-143.83;100.00;62900.06;5126701;27;20039;-63
2022/07/24 11:09:21;;;;;;;6.50;6.20;;;;;;;-143.83;100.00;62900.06;5112429;27;20055;-62
2022/07/24 11:11:52;;;;;;;6.78;6.47;;;;;;;-143.83;100.00;62900.06;5115124;27;20027;-63